createdAt,value
2018-11-21T00:01:05.745Z,12.40
2018-11-21T00:03:35.777Z,13.40
2018-11-21T00:06:06.665Z,13.43
2018-11-21T00:08:36.725Z,17.60
2018-11-21T00:11:06.866Z,13.80
2018-11-21T00:13:38.454Z,13.70
2018-11-21T00:16:09.200Z,15.50
2018-11-21T00:18:39.770Z,14.97
2018-11-21T00:21:10.426Z,14.73
2018-11-21T00:23:41.117Z,15.85
2018-11-21T00:26:11.620Z,15.90
2018-11-21T00:28:42.109Z,17.20
2018-11-21T00:31:12.918Z,19.80
2018-11-21T00:33:43.801Z,15.27
2018-11-21T00:36:14.671Z,17.40
2018-11-21T00:38:45.170Z,15.10
2018-11-21T00:41:15.819Z,18.03
2018-11-21T00:43:46.735Z,15.57
2018-11-21T00:46:16.833Z,14.93
2018-11-21T00:48:47.994Z,17.33
2018-11-21T00:51:18.421Z,17.50
2018-11-21T00:53:49.003Z,17.43
2018-11-21T00:56:19.404Z,18.53
2018-11-21T00:58:49.826Z,16.37
2018-11-21T01:01:20.375Z,17.25
2018-11-21T01:03:50.838Z,16.95
2018-11-21T01:06:20.888Z,17.93
2018-11-21T01:08:50.935Z,17.03
2018-11-21T01:11:22.095Z,17.73
2018-11-21T01:13:52.721Z,16.60
2018-11-21T01:16:23.025Z,14.67
2018-11-21T01:18:53.789Z,15.53
2018-11-21T01:21:23.940Z,16.95
2018-11-21T01:23:53.960Z,17.00
2018-11-21T01:26:25.123Z,14.37
2018-11-21T01:28:56.482Z,16.83
2018-11-21T01:31:27.069Z,17.80
2018-11-21T01:33:58.116Z,15.10
2018-11-21T01:36:28.370Z,15.63
2018-11-21T01:38:59.461Z,15.70
2018-11-21T01:41:29.849Z,16.23
2018-11-21T01:44:00.224Z,14.10
2018-11-21T01:46:31.165Z,13.90
2018-11-21T01:49:01.524Z,14.73
2018-11-21T01:51:32.710Z,16.17
2018-11-21T01:54:03.401Z,17.07
2018-11-21T01:56:34.048Z,14.77
2018-11-21T01:59:05.039Z,15.60
2018-11-21T02:01:35.394Z,17.17
2018-11-21T02:04:05.960Z,17.90
2018-11-21T02:06:36.327Z,16.03
2018-11-21T02:09:10.100Z,14.23
2018-11-21T02:11:40.276Z,18.10
2018-11-21T02:14:13.286Z,16.27
2018-11-21T02:16:44.576Z,16.13
2018-11-21T02:19:17.197Z,18.17
2018-11-21T02:21:48.307Z,17.23
2018-11-21T02:24:21.372Z,15.60
2018-11-21T02:26:52.270Z,17.60
2018-11-21T02:29:23.323Z,15.90
2018-11-21T02:31:53.663Z,17.33
2018-11-21T02:34:24.514Z,18.63
2018-11-21T02:36:54.550Z,19.83
2018-11-21T02:39:26.461Z,20.43
2018-11-21T02:41:57.349Z,18.77
2018-11-21T02:44:28.420Z,16.70
2018-11-21T02:47:00.672Z,18.80
2018-11-21T02:49:31.163Z,17.77
2018-11-21T02:52:01.673Z,25.80
2018-11-21T02:54:32.518Z,21.63
2018-11-21T02:57:20.657Z,19.98
2018-11-21T03:00:17.100Z,20.17
2018-11-21T03:02:49.405Z,22.22
2018-11-21T03:05:20.343Z,17.95
2018-11-21T03:07:52.554Z,18.30
2018-11-21T03:10:25.229Z,20.03
2018-11-21T03:12:57.820Z,18.80
2018-11-21T03:15:29.439Z,20.27
2018-11-21T03:18:00.690Z,19.13
2018-11-21T03:20:30.682Z,21.63
2018-11-21T03:23:03.525Z,18.50
2018-11-21T03:25:34.398Z,21.97
2018-11-21T03:28:04.530Z,20.27
2018-11-21T03:30:35.563Z,20.20
2018-11-21T03:33:07.875Z,18.90
2018-11-21T03:35:39.478Z,18.37
2018-11-21T03:38:10.555Z,24.37
2018-11-21T03:40:40.658Z,23.20
2018-11-21T03:43:12.516Z,22.43
2018-11-21T03:45:42.861Z,23.52
2018-11-21T03:48:15.125Z,21.00
2018-11-21T03:50:45.321Z,18.23
2018-11-21T03:53:15.645Z,24.87
2018-11-21T03:55:46.460Z,24.90
2018-11-21T03:58:16.724Z,19.20
2018-11-21T04:00:47.551Z,22.97
2018-11-21T04:03:17.701Z,23.22
2018-11-21T04:05:48.680Z,23.53
2018-11-21T04:08:19.670Z,24.67
2018-11-21T04:10:49.695Z,25.77
2018-11-21T04:13:20.880Z,27.33
2018-11-21T04:15:51.460Z,28.80
2018-11-21T04:18:21.771Z,28.47
2018-11-21T04:20:53.103Z,29.30
2018-11-21T04:23:23.640Z,30.55
2018-11-21T04:25:53.735Z,42.23
2018-11-21T04:28:24.765Z,48.10
2018-11-21T04:30:54.801Z,36.03
2018-11-21T04:33:25.904Z,30.97
2018-11-21T04:35:57.031Z,41.70
2018-11-21T04:38:27.565Z,36.83
2018-11-21T04:40:58.012Z,36.70
2018-11-21T04:43:28.528Z,38.42
2018-11-21T04:45:58.959Z,36.67
2018-11-21T04:48:28.970Z,35.58
2018-11-21T04:51:00.038Z,34.73
2018-11-21T04:53:30.170Z,35.03
2018-11-21T04:56:01.092Z,39.50
2018-11-21T04:58:31.624Z,36.83
2018-11-21T05:01:02.157Z,31.23
2018-11-21T05:03:32.971Z,33.63
2018-11-21T05:06:03.589Z,41.70
2018-11-21T05:08:34.156Z,32.70
2018-11-21T05:11:04.657Z,33.00
2018-11-21T05:13:34.979Z,37.17
2018-11-21T05:16:06.988Z,38.27
2018-11-21T05:18:39.133Z,36.87
2018-11-21T05:21:10.483Z,39.10
2018-11-21T05:23:41.266Z,41.13
2018-11-21T05:26:12.225Z,43.63
2018-11-21T05:28:44.234Z,43.00
2018-11-21T05:31:17.539Z,45.45
2018-11-21T05:33:47.765Z,51.13
2018-11-21T05:36:20.268Z,55.83
2018-11-21T05:38:51.248Z,51.57
2018-11-21T05:41:22.205Z,53.10
2018-11-21T05:43:53.236Z,62.43
2018-11-21T05:46:24.175Z,51.03
2018-11-21T05:48:54.204Z,47.57
2018-11-21T05:51:25.225Z,46.13
2018-11-21T05:53:55.263Z,45.37
2018-11-21T05:56:26.189Z,53.97
2018-11-21T05:58:58.358Z,50.77
2018-11-21T06:01:30.121Z,41.70
2018-11-21T06:04:01.173Z,43.43
2018-11-21T06:06:31.282Z,47.43
2018-11-21T06:09:07.236Z,47.03
2018-11-21T06:11:39.405Z,40.83
2018-11-21T06:14:12.366Z,44.13
2018-11-21T06:16:43.313Z,35.93
2018-11-21T06:19:13.335Z,38.13
2018-11-21T06:21:44.282Z,35.80
2018-11-21T06:24:15.339Z,39.57
2018-11-21T06:26:53.959Z,33.90
2018-11-21T06:29:25.510Z,37.38
2018-11-21T06:31:56.145Z,34.05
2018-11-21T06:34:29.137Z,33.40
2018-11-21T06:36:57.528Z,26.20
2018-11-21T06:39:28.337Z,30.62
2018-11-21T06:41:58.369Z,27.20
2018-11-21T06:44:29.594Z,25.77
2018-11-21T06:47:00.342Z,26.50
2018-11-21T06:49:31.122Z,26.57
2018-11-21T06:52:01.568Z,27.57
2018-11-21T06:54:32.432Z,19.10
2018-11-21T06:57:03.495Z,24.80
2018-11-21T06:59:33.685Z,27.23
2018-11-21T07:02:04.472Z,23.15
2018-11-21T07:04:34.536Z,23.17
2018-11-21T07:07:05.422Z,21.63
2018-11-21T07:09:35.989Z,23.40
2018-11-21T07:12:06.279Z,29.70
2018-11-21T07:14:36.733Z,21.70
2018-11-21T07:17:07.385Z,27.20
2018-11-21T07:19:37.464Z,20.13
2018-11-21T07:22:08.540Z,26.53
2018-11-21T07:24:39.295Z,20.70
2018-11-21T07:27:09.845Z,25.90
2018-11-21T07:29:40.433Z,23.20
2018-11-21T07:32:10.497Z,25.97
2018-11-21T07:34:41.602Z,30.60
2018-11-21T07:37:12.286Z,26.50
2018-11-21T07:39:42.743Z,23.53
2018-11-21T07:42:13.685Z,26.53
2018-11-21T07:44:44.488Z,22.50
2018-11-21T07:47:14.645Z,22.73
2018-11-21T07:49:45.745Z,24.50
2018-11-21T07:52:16.509Z,22.80
2018-11-21T07:54:46.636Z,28.27
2018-11-21T07:57:41.470Z,27.23
2018-11-21T08:01:02.012Z,21.23
2018-11-21T08:03:41.727Z,27.90
2018-11-21T08:06:33.965Z,23.70
2018-11-21T08:09:26.796Z,22.17
2018-11-21T08:12:19.596Z,27.90
2018-11-21T08:15:08.167Z,25.03
2018-11-21T08:17:55.927Z,24.70
2018-11-21T08:21:04.114Z,25.63
2018-11-21T08:23:55.702Z,30.13
2018-11-21T08:26:42.944Z,33.93
2018-11-21T08:29:14.046Z,30.83
2018-11-21T08:31:46.813Z,34.47
2018-11-21T08:34:17.875Z,36.93
2018-11-21T08:36:47.906Z,33.33
2018-11-21T08:39:19.087Z,40.30
2018-11-21T08:41:49.906Z,37.87
2018-11-21T08:44:19.997Z,39.70
2018-11-21T08:46:51.057Z,39.00
2018-11-21T08:49:23.942Z,36.53
2018-11-21T08:51:54.630Z,36.57
2018-11-21T08:54:26.114Z,44.90
2018-11-21T08:56:58.023Z,42.47
2018-11-21T08:59:29.981Z,46.17
2018-11-21T09:02:00.943Z,41.07
2018-11-21T09:04:32.110Z,40.00
2018-11-21T09:07:04.113Z,38.43
2018-11-21T09:09:36.167Z,39.57
2018-11-21T09:12:08.776Z,37.17
2018-11-21T09:14:37.927Z,39.87
2018-11-21T09:17:08.870Z,37.53
2018-11-21T09:19:39.017Z,33.13
2018-11-21T09:22:10.166Z,34.70
2018-11-21T09:24:40.648Z,34.57
2018-11-21T09:27:11.574Z,37.83
2018-11-21T09:29:41.698Z,30.63
2018-11-21T09:32:12.143Z,35.30
2018-11-21T09:34:42.830Z,34.27
2018-11-21T09:37:13.176Z,36.77
2018-11-21T09:39:44.128Z,30.00
2018-11-21T09:42:14.585Z,34.00
2018-11-21T09:44:45.184Z,34.50
2018-11-21T09:47:15.247Z,33.47
2018-11-21T09:49:46.159Z,34.77
2018-11-21T09:52:16.233Z,33.20
2018-11-21T09:54:47.190Z,32.40
2018-11-21T09:57:19.847Z,28.65
2018-11-21T09:59:52.373Z,41.87
2018-11-21T10:02:59.447Z,37.60
2018-11-21T10:05:32.253Z,31.57
2018-11-21T10:08:18.162Z,33.23
2018-11-21T10:10:48.226Z,25.88
2018-11-21T10:13:19.237Z,26.03
2018-11-21T10:15:50.604Z,30.30
2018-11-21T10:18:21.262Z,31.63
2018-11-21T10:20:51.325Z,33.57
2018-11-21T10:23:22.315Z,25.85
2018-11-21T10:25:53.420Z,26.37
2018-11-21T10:28:24.294Z,27.83
2018-11-21T10:30:54.351Z,22.30
2018-11-21T10:33:25.328Z,29.77
2018-11-21T10:35:55.419Z,25.67
2018-11-21T10:38:26.395Z,29.73
2018-11-21T10:40:58.755Z,22.00
2018-11-21T10:43:30.922Z,20.57
2018-11-21T10:46:00.982Z,22.47
2018-11-21T10:48:31.352Z,19.43
2018-11-21T10:51:01.766Z,23.50
2018-11-21T10:53:32.517Z,21.77
2018-11-21T10:56:03.495Z,24.67
2018-11-21T10:58:33.630Z,27.23
2018-11-21T11:01:21.523Z,23.55
2018-11-21T11:03:55.024Z,23.83
2018-11-21T11:06:44.597Z,20.43
2018-11-21T11:09:39.416Z,22.93
2018-11-21T11:12:21.387Z,24.40
2018-11-21T11:15:14.311Z,20.33
2018-11-21T11:18:12.747Z,25.30
2018-11-21T11:21:02.155Z,25.00
2018-11-21T11:24:07.919Z,24.80
2018-11-21T11:27:07.400Z,26.67
2018-11-21T11:29:56.613Z,22.93
2018-11-21T11:32:48.551Z,28.20
2018-11-21T11:35:44.691Z,37.40
2018-11-21T11:38:51.799Z,36.20
2018-11-21T11:41:52.679Z,33.37
2018-11-21T11:44:41.660Z,34.13
2018-11-21T11:47:30.211Z,33.57
2018-11-21T11:50:19.871Z,38.27
2018-11-21T11:53:08.404Z,32.03
2018-11-21T11:55:56.730Z,38.13
2018-11-21T11:58:49.956Z,34.60
2018-11-21T12:01:44.836Z,39.40
2018-11-21T12:04:34.291Z,39.00
2018-11-21T12:07:35.490Z,39.90
2018-11-21T12:10:24.148Z,44.57
2018-11-21T12:13:20.219Z,48.47
2018-11-21T12:16:11.914Z,40.70
2018-11-21T12:19:09.955Z,41.63
2018-11-21T12:22:04.509Z,43.10
2018-11-21T12:24:44.188Z,62.90
2018-11-21T12:27:27.048Z,56.13
2018-11-21T12:30:31.109Z,53.00
2018-11-21T12:33:25.571Z,51.10
2018-11-21T12:36:13.119Z,65.50
2018-11-21T12:39:11.897Z,55.40
2018-11-21T12:42:04.495Z,61.83
2018-11-21T12:45:11.045Z,54.90
2018-11-21T12:47:53.603Z,62.53
2018-11-21T12:50:58.300Z,62.80
2018-11-21T12:53:48.929Z,73.02
2018-11-21T12:56:31.155Z,70.70
2018-11-21T12:59:20.928Z,66.75
2018-11-21T13:02:08.600Z,79.40
2018-11-21T13:04:57.079Z,83.47
2018-11-21T13:07:45.509Z,87.00
2018-11-21T13:10:38.101Z,90.50
2018-11-21T13:13:26.393Z,82.70
2018-11-21T13:16:13.818Z,80.20
2018-11-21T13:19:10.009Z,95.70
2018-11-21T13:21:57.970Z,93.57
2018-11-21T13:24:48.416Z,91.00
2018-11-21T13:27:37.958Z,100.47
2018-11-21T13:30:37.058Z,93.53
2018-11-21T13:33:25.035Z,96.00
2018-11-21T13:36:13.032Z,97.07
2018-11-21T13:39:07.433Z,94.57
2018-11-21T13:41:57.988Z,101.40
2018-11-21T13:44:41.115Z,100.63
2018-11-21T13:47:30.296Z,109.60
2018-11-21T13:50:17.517Z,106.60
2018-11-21T13:53:17.660Z,109.27
2018-11-21T13:55:50.058Z,105.70
2018-11-21T13:58:20.399Z,111.57
2018-11-21T14:00:51.336Z,109.07
2018-11-21T14:03:22.176Z,120.47
2018-11-21T14:05:52.349Z,109.10
2018-11-21T14:08:23.398Z,116.57
2018-11-21T14:10:54.001Z,114.47
2018-11-21T14:13:24.467Z,125.63
2018-11-21T14:15:55.124Z,134.70
2018-11-21T14:18:25.445Z,123.60
2018-11-21T14:20:55.534Z,116.77
2018-11-21T14:23:26.381Z,122.77
2018-11-21T14:25:57.285Z,118.27
2018-11-21T14:28:27.338Z,123.27
2018-11-21T14:30:58.478Z,116.80
2018-11-21T14:33:29.396Z,126.20
2018-11-21T14:36:00.021Z,111.13
2018-11-21T14:38:30.481Z,129.23
2018-11-21T14:41:01.339Z,132.00
2018-11-21T14:43:31.407Z,130.65
2018-11-21T14:46:01.585Z,128.97
2018-11-21T14:48:33.501Z,131.60
2018-11-21T14:51:04.623Z,131.97
2018-11-21T14:53:34.607Z,135.67
2018-11-21T14:56:06.037Z,126.33
2018-11-21T14:58:36.345Z,139.23
2018-11-21T15:01:07.172Z,140.60
2018-11-21T15:03:37.749Z,151.90
2018-11-21T15:06:08.847Z,140.80
2018-11-21T15:08:39.495Z,140.23
2018-11-21T15:11:10.190Z,133.78
2018-11-21T15:13:40.277Z,148.57
2018-11-21T15:16:10.892Z,136.43
2018-11-21T15:18:41.519Z,137.10
2018-11-21T15:21:16.456Z,140.97
2018-11-21T15:23:42.683Z,125.57
2018-11-21T15:26:13.327Z,134.90
2018-11-21T15:28:43.862Z,143.20
2018-11-21T15:31:14.437Z,138.60
2018-11-21T15:33:44.673Z,118.82
2018-11-21T15:36:15.575Z,123.17
2018-11-21T15:38:45.663Z,129.70
2018-11-21T15:41:16.784Z,121.05
2018-11-21T15:43:47.446Z,122.50
2018-11-21T15:46:17.757Z,129.77
2018-11-21T15:48:48.770Z,126.67
2018-11-21T15:51:19.452Z,114.08
2018-11-21T15:53:49.835Z,109.97
2018-11-21T15:56:19.890Z,113.47
2018-11-21T15:58:50.663Z,131.13
2018-11-21T16:01:21.714Z,129.10
2018-11-21T16:03:52.822Z,116.23
2018-11-21T16:06:23.945Z,116.93
2018-11-21T16:08:54.633Z,113.90
2018-11-21T16:11:24.935Z,103.60
2018-11-21T16:13:55.312Z,119.10
2018-11-21T16:16:25.408Z,113.37
2018-11-21T16:18:55.469Z,117.90
2018-11-21T16:21:27.867Z,119.13
2018-11-21T16:23:59.032Z,116.43
2018-11-21T16:26:29.574Z,117.43
2018-11-21T16:29:00.014Z,115.10
2018-11-21T16:31:30.514Z,107.53
2018-11-21T16:34:01.927Z,114.77
2018-11-21T16:36:31.971Z,118.47
2018-11-21T16:39:02.274Z,109.23
2018-11-21T16:41:32.902Z,119.70
2018-11-21T16:44:03.593Z,116.40
2018-11-21T16:46:34.076Z,108.73
2018-11-21T16:49:05.091Z,99.70
2018-11-21T16:51:35.342Z,116.30
2018-11-21T16:54:06.071Z,121.87
2018-11-21T16:56:36.591Z,120.43
2018-11-21T16:59:07.102Z,126.67
2018-11-21T17:01:38.357Z,117.23
2018-11-21T17:04:08.646Z,131.10
2018-11-21T17:06:39.382Z,115.73
2018-11-21T17:09:11.917Z,118.67
2018-11-21T17:11:44.239Z,121.30
2018-11-21T17:14:17.099Z,117.70
2018-11-21T17:16:48.083Z,126.27
2018-11-21T17:19:20.849Z,122.90
2018-11-21T17:21:53.159Z,117.10
2018-11-21T17:24:25.171Z,126.50
2018-11-21T17:26:55.793Z,113.60
2018-11-21T17:29:28.379Z,107.78
2018-11-21T17:31:59.344Z,119.03
2018-11-21T17:34:31.391Z,107.90
2018-11-21T17:37:02.352Z,114.12
2018-11-21T17:39:33.314Z,115.13
2018-11-21T17:42:04.492Z,99.47
2018-11-21T17:44:34.550Z,112.13
2018-11-21T17:47:05.428Z,121.70
2018-11-21T17:49:35.650Z,97.50
2018-11-21T17:52:06.309Z,103.40
2018-11-21T17:54:36.536Z,100.27
2018-11-21T17:57:07.468Z,105.23
2018-11-21T17:59:37.989Z,107.40
2018-11-21T18:02:08.251Z,93.52
2018-11-21T18:04:39.196Z,95.77
2018-11-21T18:07:09.946Z,100.50
2018-11-21T18:09:40.294Z,93.97
2018-11-21T18:12:10.389Z,88.93
2018-11-21T18:14:41.380Z,90.33
2018-11-21T18:17:12.259Z,102.77
2018-11-21T18:19:42.357Z,112.77
2018-11-21T18:22:13.584Z,96.97
2018-11-21T18:24:44.523Z,103.93
2018-11-21T18:27:15.127Z,107.67
2018-11-21T18:29:45.548Z,98.37
2018-11-21T18:32:16.486Z,102.30
2018-11-21T18:34:47.179Z,98.43
2018-11-21T18:37:17.613Z,91.97
2018-11-21T18:39:48.379Z,99.27
2018-11-21T18:42:19.405Z,96.47
2018-11-21T18:44:49.583Z,97.57
2018-11-21T18:47:20.452Z,101.40
2018-11-21T18:49:50.694Z,91.90
2018-11-21T18:52:21.391Z,96.73
2018-11-21T18:54:51.920Z,89.13
2018-11-21T18:58:19.461Z,93.57
2018-11-21T19:00:52.450Z,93.03
2018-11-21T19:03:23.711Z,91.10
2018-11-21T19:05:54.785Z,98.13
2018-11-21T19:08:25.176Z,100.35
2018-11-21T19:10:55.683Z,92.10
2018-11-21T19:13:27.307Z,110.50
2018-11-21T19:16:02.264Z,87.23
2018-11-21T19:18:33.889Z,88.27
2018-11-21T19:21:06.206Z,94.87
2018-11-21T19:23:37.797Z,94.87
2018-11-21T19:26:08.661Z,101.03
2018-11-21T19:28:39.732Z,85.50
2018-11-21T19:31:13.230Z,98.83
2018-11-21T19:33:43.735Z,100.73
2018-11-21T19:36:14.877Z,106.77
2018-11-21T19:38:45.891Z,107.67
2018-11-21T19:41:18.723Z,111.47
2018-11-21T19:43:49.743Z,112.60
2018-11-21T19:46:20.560Z,102.13
2018-11-21T19:48:50.751Z,98.67
2018-11-21T19:51:21.854Z,103.40
2018-11-21T19:53:52.687Z,117.53
2018-11-21T19:56:22.788Z,117.50
2018-11-21T19:58:53.818Z,111.13
2018-11-21T20:01:24.084Z,112.50
2018-11-21T20:03:54.973Z,109.03
2018-11-21T20:06:25.680Z,117.20
2018-11-21T20:08:55.664Z,114.93
2018-11-21T20:11:26.713Z,127.43
2018-11-21T20:13:57.410Z,113.93
2018-11-21T20:16:27.910Z,120.20
2018-11-21T20:18:58.665Z,117.00
2018-11-21T20:21:28.955Z,129.38
2018-11-21T20:23:59.056Z,107.23
2018-11-21T20:26:29.957Z,123.37
2018-11-21T20:29:01.315Z,120.20
2018-11-21T20:31:31.837Z,126.17
2018-11-21T20:34:03.044Z,120.00
2018-11-21T20:36:33.329Z,116.10
2018-11-21T20:39:06.960Z,124.43
2018-11-21T20:41:38.073Z,123.03
2018-11-21T20:44:09.019Z,110.53
2018-11-21T20:46:39.070Z,111.40
2018-11-21T20:49:11.528Z,114.43
2018-11-21T20:51:41.007Z,107.60
2018-11-21T20:54:12.129Z,119.47
2018-11-21T20:56:44.979Z,121.93
2018-11-21T20:59:16.111Z,106.17
2018-11-21T21:01:46.131Z,104.13
2018-11-21T21:04:17.232Z,103.10
2018-11-21T21:06:50.094Z,98.50
2018-11-21T21:09:21.089Z,99.70
2018-11-21T21:11:52.034Z,103.30
2018-11-21T21:14:22.105Z,99.70
2018-11-21T21:16:53.163Z,107.33
2018-11-21T21:19:24.206Z,99.35
2018-11-21T21:21:55.763Z,102.13
2018-11-21T21:24:28.112Z,93.93
2018-11-21T21:26:59.122Z,102.97
2018-11-21T21:29:29.142Z,102.45
2018-11-21T21:32:02.092Z,88.07
2018-11-21T21:34:33.201Z,101.40
2018-11-21T21:37:04.355Z,87.63
2018-11-21T21:39:35.008Z,88.50
2018-11-21T21:42:05.320Z,106.00
2018-11-21T21:44:36.143Z,89.30
2018-11-21T21:47:07.258Z,97.23
2018-11-21T21:49:37.987Z,95.03
2018-11-21T21:52:08.235Z,101.40
2018-11-21T21:54:39.481Z,90.13
2018-11-21T21:57:09.933Z,98.87
2018-11-21T21:59:40.981Z,101.47
2018-11-21T22:02:11.322Z,110.03
2018-11-21T22:04:42.326Z,116.03
2018-11-21T22:07:13.383Z,111.53
2018-11-21T22:09:43.833Z,110.85
2018-11-21T22:12:14.494Z,114.83
2018-11-21T22:14:44.962Z,102.93
2018-11-21T22:17:15.449Z,109.80
2018-11-21T22:19:46.209Z,108.60
2018-11-21T22:22:16.293Z,99.63
2018-11-21T22:24:47.128Z,101.00
2018-11-21T22:27:17.400Z,96.80
2018-11-21T22:29:48.320Z,99.13
2018-11-21T22:32:19.244Z,107.07
2018-11-21T22:34:49.397Z,113.90
2018-11-21T22:37:20.356Z,94.30
2018-11-21T22:39:50.448Z,111.90
2018-11-21T22:42:21.491Z,105.10
2018-11-21T22:44:52.235Z,115.30
2018-11-21T22:47:22.562Z,100.25
2018-11-21T22:49:53.538Z,105.23
2018-11-21T22:52:24.551Z,97.10
2018-11-21T22:54:55.270Z,86.73
2018-11-21T22:57:26.333Z,93.15
2018-11-21T22:59:55.969Z,107.55
2018-11-21T23:02:27.472Z,92.97
2018-11-21T23:04:58.632Z,85.77
2018-11-21T23:07:29.113Z,89.63
2018-11-21T23:09:59.439Z,88.00
2018-11-21T23:12:30.512Z,99.37
2018-11-21T23:15:00.992Z,90.50
2018-11-21T23:17:31.567Z,87.30
2018-11-21T23:20:02.459Z,92.50
2018-11-21T23:22:32.735Z,78.90
2018-11-21T23:25:03.139Z,78.33
2018-11-21T23:27:33.707Z,81.00
2018-11-21T23:30:04.971Z,77.25
2018-11-21T23:32:34.972Z,81.35
2018-11-21T23:35:06.048Z,79.70
2018-11-21T23:37:36.172Z,88.23
2018-11-21T23:40:08.341Z,89.93
2018-11-21T23:42:40.984Z,80.50
2018-11-21T23:45:14.925Z,73.83
2018-11-21T23:47:46.141Z,73.60
2018-11-21T23:50:18.725Z,79.27
2018-11-21T23:52:48.819Z,69.43
